Flight Track Log - Related Links

Times and Time Zones

All times are in EDT time to prevent confusion due to time zone crossing. See the N960DL flight status page for this flight to view local times or setup timezone preferences in your user account.

Time Position Orientation Groundspeed Altitude Reporting Facility
EDT Latitude Longitude Course Direction KTS MPH feet Rate Location/Type
Sun 08:53:34 AM 33.6333 -84.4000 199° South 171 197 2,300  Level Atlanta TRACON
Sun 08:54:34 AM 33.6167 -84.3333 107° East 236 272 4,400 2,400 Climbing Atlanta TRACON
Sun 08:55:34 AM 33.5667 -84.2833 140° Southeast 271 312 7,100 1,943 Climbing Atlanta TRACON
Sun 08:56:00 AM 33.2548 -84.3237 194° South  Level FlightAware Approximate
Sun 08:57:00 AM 33.1370 -84.3580 194° South  Level FlightAware Approximate
Sun 08:58:00 AM 33.0191 -84.3891 199° South  Level FlightAware Approximate
Sun 08:58:04 AM 33.3661 -84.3075 186° South 298 343 11,200  Level Atlanta Center
Sun 08:59:04 AM 33.2742 -84.3344 194° South 329 379 13,900 2,750 Climbing Atlanta Center
Sun 09:00:04 AM 33.1803 -84.3639 195° South 347 399 16,700 2,350 Climbing Atlanta Center
Sun 09:01:04 AM 33.0861 -84.3933 195° South 347 399 18,600 1,950 Climbing Atlanta Center
Sun 09:02:04 AM 32.9900 -84.4178 192° South 352 405 20,600 1,950 Climbing Atlanta Center
Sun 09:03:04 AM 32.8878 -84.4247 183° South 362 417 22,500 1,650 Climbing Atlanta Center
Sun 09:04:04 AM 32.7917 -84.4267 181° South 370 426 23,900 1,450 Climbing Atlanta Center
Sun 09:05:04 AM 32.6853 -84.4189 176° South 375 432 25,400 1,450 Climbing Atlanta Center
Sun 09:06:04 AM 32.5747 -84.4158 179° South 385 443 26,800 1,050 Climbing Atlanta Center
Sun 09:07:04 AM 32.4642 -84.4131 179° South 390 449 27,500 650 Climbing Atlanta Center
Sun 09:08:04 AM 32.3450 -84.4100 179° South 412 474 28,100 800 Climbing Atlanta Center
Sun 09:09:04 AM 32.2219 -84.4072 179° South 428 493 29,100 1,125 Climbing Atlanta Center
Sun 09:10:44 AM 32.0114 -84.4019 179° South 446 513 31,100 975 Climbing Jacksonville Center
Sun 09:11:44 AM 31.8925 -84.3975 178° South 441 507 31,700 550 Climbing Jacksonville Center
Sun 09:12:44 AM 31.7714 -84.3981 180° South 436 502 32,200 450 Climbing Jacksonville Center
Sun 09:13:44 AM 31.6483 -84.3936 178° South 436 502 32,600 400 Climbing Jacksonville Center
Sun 09:14:44 AM 31.5253 -84.3694 170° South 441 507 33,000 200 Climbing Jacksonville Center
Sun 09:15:44 AM 31.4025 -84.3311 165° South 446 513 33,000  Level Jacksonville Center
Sun 09:16:44 AM 31.2797 -84.2975 167° South 451 519 33,000  Level Jacksonville Center
Sun 09:17:44 AM 31.1547 -84.2642 167° South 451 519 33,000  Level Jacksonville Center
Sun 09:18:44 AM 31.0300 -84.2308 167° South 451 519 33,000  Level Jacksonville Center
Sun 09:19:44 AM 30.9094 -84.1808 160° South 451 519 33,000  Level Jacksonville Center
Sun 09:20:44 AM 30.7847 -84.1186 157° South 462 532 33,000  Level Jacksonville Center
Sun 09:21:44 AM 30.6661 -84.0567 156° South 467 537 33,000  Level Jacksonville Center
Sun 09:22:44 AM 30.5497 -83.9972 156° South 472 543 33,000  Level Jacksonville Center
Sun 09:23:44 AM 30.4272 -83.9381 157° South 472 543 33,000  Level Jacksonville Center
Sun 09:24:44 AM 30.3044 -83.8792 158° South 472 543 33,000  Level Jacksonville Center
Sun 09:25:44 AM 30.1839 -83.8200 157° South 472 543 33,000  Level Jacksonville Center
Sun 09:26:44 AM 30.0589 -83.7589 157° South 472 543 33,000  Level Jacksonville Center
Sun 09:27:44 AM 29.9361 -83.7003 158° South 472 543 33,000  Level Jacksonville Center
Sun 09:28:44 AM 29.8133 -83.6394 157° South 472 543 33,000  Level Jacksonville Center
Sun 09:29:44 AM 29.6906 -83.5764 156° South 477 549 33,000  Level Jacksonville Center
Sun 09:30:44 AM 29.5678 -83.5158 157° South 477 549 33,000  Level Jacksonville Center
Sun 09:31:44 AM 29.4428 -83.4578 158° South 477 549 33,000  Level Jacksonville Center
Sun 09:32:44 AM 29.3197 -83.3950 156° South 477 549 33,000  Level Jacksonville Center
Sun 09:33:44 AM 29.1947 -83.3350 157° South 477 549 33,000  Level Jacksonville Center
Sun 09:34:44 AM 29.0719 -83.2750 157° South 477 549 33,000  Level Jacksonville Center
Sun 09:35:44 AM 28.9508 -83.2178 158° South 477 549 33,000  Level Jacksonville Center
Sun 09:36:44 AM 28.8278 -83.1581 157° South 477 549 33,000  Level Jacksonville Center
Sun 09:37:44 AM 28.7069 -83.0986 157° South 472 543 33,000  Level Jacksonville Center
Sun 09:38:44 AM 28.5839 -83.0392 157° South 472 543 33,000  Level Jacksonville Center
Sun 09:39:44 AM 28.4692 -82.9847 157° South 482 555 33,000  Level Jacksonville Center
Sun 09:40:27 AM 28.3700 -82.9381 158° South 478 550 33,000  Level Miami Center
Sun 09:41:27 AM 28.2453 -82.8772 157° South 478 550 33,000  Level Miami Center
Sun 09:42:27 AM 28.1206 -82.8186 157° South 485 558 33,000  Level Miami Center
Sun 09:43:27 AM 28.0019 -82.7608 157° South 480 552 33,000  Level Miami Center
Sun 09:44:27 AM 27.8811 -82.7100 160° South 492 566 33,000  Level Miami Center
Sun 09:45:27 AM 27.7558 -82.6611 161° South 487 560 33,000  Level Miami Center
Sun 09:46:27 AM 27.6117 -82.6094 162° South 487 560 33,000  Level Miami Center
Sun 09:47:27 AM 27.4825 -82.5586 161° South 495 570 33,000  Level Miami Center
Sun 09:48:27 AM 27.3753 -82.5206 163° South 495 570 33,000 -650 Level Miami Center
Sun 09:49:27 AM 27.2375 -82.4717 162° South 494 568 31,700 -1,000 Descending Miami Center
Sun 09:50:27 AM 27.1058 -82.4233 162° South 489 563 31,000 -650 Descending Miami Center
Sun 09:51:27 AM 26.9636 -82.3722 162° South 494 568 30,400 -550 Descending Miami Center
Sun 09:52:27 AM 26.8342 -82.3242 162° South 494 568 29,900 -500 Descending Miami Center
Sun 09:53:27 AM 26.7086 -82.2742 160° South 494 568 29,400 -500 Descending Miami Center
Sun 09:54:27 AM 26.5792 -82.2219 160° South 494 568 28,900 -600 Descending Miami Center
Sun 09:55:27 AM 26.4725 -82.1103 137° Southeast 509 586 28,200 -1,150 Descending Miami Center
Sun 09:56:27 AM 26.3697 -82.0083 138° Southeast 509 586 26,600 -2,300 Descending Miami Center
Sun 09:57:27 AM 26.2711 -81.8978 135° Southeast 503 579 23,600 -2,700 Descending Miami Center
Sun 09:58:27 AM 26.1767 -81.7942 135° Southeast 492 566 21,200 -2,200 Descending Miami Center
Sun 09:59:27 AM 26.1181 -81.6692 118° Southeast 463 533 19,200 -1,650 Descending Miami Center
Sun 10:00:27 AM 26.0744 -81.5356 110° East 457 526 17,900 -2,150 Descending Miami Center
Sun 10:01:27 AM 26.0347 -81.4092 109° East 445 512 14,900 -2,800 Descending Miami Center
Sun 10:02:27 AM 25.9947 -81.2831 109° East 440 506 12,300 -2,505 Descending Miami Center
Sun 10:03:10 AM 25.9639 -81.1986 112° Southeast 406 467 10,600 -1,900 Descending Miami Center
Sun 10:03:27 AM 25.9564 -81.1661 104° East 422 486 10,400 -1,000 Descending Miami Center
Sun 10:03:46 AM 25.9428 -81.1333 115° Southeast 395 455 10,000 -400 Descending Miami Center
Sun 10:04:27 AM 25.9219 -81.0564 107° East 398 458 10,000 -197 Level Miami Center
Sun 10:04:47 AM 25.9061 -81.0233 118° Southeast 337 388 9,800 -600 Descending Miami Center
Sun 10:05:27 AM 25.8808 -80.9647 116° Southeast 361 415 9,400 -716 Descending Miami Center
Sun 10:05:54 AM 25.8586 -80.9294 125° Southeast 312 359 9,000 -1,000 Descending Miami Center
Sun 10:06:27 AM 25.8392 -80.8850 116° Southeast 324 373 8,400 -1,377 Descending Miami Center
Sun 10:06:55 AM 25.8192 -80.8497 122° Southeast 291 335 7,600 -1,300 Descending Miami Center
Sun 10:07:27 AM 25.8014 -80.8075 115° Southeast 300 345 7,100 -1,355 Descending Miami Center
Sun 10:07:57 AM 25.7900 -80.7681 108° East 277 319 6,200 -1,400 Descending Miami Center
Sun 10:08:27 AM 25.7911 -80.7242 88° East 271 312 5,700 -1,091 Descending Miami Center
Sun 10:08:52 AM 25.7878 -80.6917 96° East 266 306 5,200 -900 Descending Miami Center
Sun 10:09:27 AM 25.7869 -80.6411 91° East 265 305 4,800 -627 Descending Miami Center
Sun 10:09:59 AM 25.7819 -80.5992 98° East 267 307 4,500 -600 Descending Miami Center
Sun 10:10:27 AM 25.7850 -80.5603 85° East 265 305 4,200 -873 Descending Miami Center
Sun 10:10:54 AM 25.7794 -80.5256 100° East 266 306 3,700 -1,111 Descending Miami Center

Login

Don't have an account? Register now (free) for customized features, flight alerts, and more!